createdAt,value
2023-01-09T00:00:22.162Z,-15.92
2023-01-09T00:02:49.194Z,-16.01
2023-01-09T00:05:17.162Z,-16.07
2023-01-09T00:07:44.639Z,-16.21
2023-01-09T00:10:12.054Z,-16.19
2023-01-09T00:12:39.466Z,-16.11
2023-01-09T00:15:06.811Z,-16.13
2023-01-09T00:17:34.167Z,-16.16
2023-01-09T00:20:01.217Z,-16.18
2023-01-09T00:22:29.611Z,-16.14
2023-01-09T00:24:56.563Z,-16.18
2023-01-09T00:27:23.536Z,-16.19
2023-01-09T00:29:50.532Z,-16.21
2023-01-09T00:32:17.538Z,-16.20
2023-01-09T00:34:44.707Z,-16.21
2023-01-09T00:37:14.583Z,-16.21
2023-01-09T00:39:42.368Z,-16.25
2023-01-09T00:42:16.087Z,-16.32
2023-01-09T00:44:57.282Z,-16.35
2023-01-09T00:47:29.523Z,-16.41
2023-01-09T00:49:59.255Z,-16.42
2023-01-09T00:52:26.303Z,-16.47
2023-01-09T00:54:53.579Z,-16.56
2023-01-09T00:57:20.668Z,-16.64
2023-01-09T00:59:49.204Z,-16.63
2023-01-09T01:02:16.279Z,-16.70
2023-01-09T01:05:01.948Z,-16.80
2023-01-09T01:07:39.421Z,-16.92
2023-01-09T01:10:08.003Z,-16.99
2023-01-09T01:12:35.017Z,-17.09
2023-01-09T01:15:01.976Z,-17.18
2023-01-09T01:17:29.403Z,-17.19
2023-01-09T01:19:56.708Z,-17.29
2023-01-09T01:22:23.756Z,-17.33
2023-01-09T01:24:50.781Z,-17.41
2023-01-09T01:27:17.784Z,-17.40
2023-01-09T01:29:44.694Z,-17.39
2023-01-09T01:32:12.026Z,-17.41
2023-01-09T01:34:39.088Z,-17.53
2023-01-09T01:37:06.229Z,-17.55
2023-01-09T01:39:36.459Z,-17.57
2023-01-09T01:42:04.374Z,-17.57
2023-01-09T01:44:50.094Z,-17.63
2023-01-09T01:47:18.267Z,-17.63
2023-01-09T01:49:45.596Z,-17.66
2023-01-09T01:52:12.826Z,-17.74
2023-01-09T01:54:40.006Z,-17.69
2023-01-09T01:57:07.281Z,-17.70
2023-01-09T01:59:38.553Z,-17.74
2023-01-09T02:02:05.915Z,-17.75
2023-01-09T02:04:34.379Z,-17.77
2023-01-09T02:07:03.214Z,-17.88
2023-01-09T02:09:33.050Z,-17.88
2023-01-09T02:12:19.182Z,-17.92
2023-01-09T02:14:47.972Z,-17.95
2023-01-09T02:17:53.619Z,-18.04
2023-01-09T02:20:41.713Z,-18.00
2023-01-09T02:23:14.659Z,-17.99
2023-01-09T02:26:10.507Z,-18.03
2023-01-09T02:28:46.269Z,-18.01
2023-01-09T02:31:22.500Z,-18.01
2023-01-09T02:33:49.927Z,-17.98
2023-01-09T02:36:32.097Z,-18.05
2023-01-09T02:39:07.210Z,-18.04
2023-01-09T02:41:43.140Z,-18.08
2023-01-09T02:44:12.921Z,-18.11
2023-01-09T02:46:39.987Z,-18.22
2023-01-09T02:49:07.863Z,-18.29
2023-01-09T02:51:39.862Z,-18.39
2023-01-09T02:54:20.794Z,-18.42
2023-01-09T02:56:50.430Z,-18.40
2023-01-09T02:59:21.374Z,-18.45
2023-01-09T03:02:03.492Z,-18.37
2023-01-09T03:04:49.571Z,-18.35
2023-01-09T03:07:23.367Z,-18.33
2023-01-09T03:09:52.576Z,-18.30
2023-01-09T03:12:22.395Z,-18.25
2023-01-09T03:14:51.328Z,-18.28
2023-01-09T03:17:35.737Z,-18.30
2023-01-09T03:20:04.531Z,-18.33
2023-01-09T03:22:31.493Z,-18.39
2023-01-09T03:24:58.645Z,-18.38
2023-01-09T03:27:25.675Z,-18.35
2023-01-09T03:29:53.542Z,-18.28
2023-01-09T03:32:20.563Z,-18.24
2023-01-09T03:34:47.461Z,-18.33
2023-01-09T03:37:14.606Z,-18.28
2023-01-09T03:39:41.627Z,-18.27
2023-01-09T03:42:08.585Z,-18.28
2023-01-09T03:44:35.525Z,-18.20
2023-01-09T03:47:02.509Z,-18.21
2023-01-09T03:49:29.886Z,-18.23
2023-01-09T03:51:56.862Z,-18.18
2023-01-09T03:54:23.838Z,-18.17
2023-01-09T03:56:51.178Z,-18.18
2023-01-09T03:59:18.082Z,-18.17
2023-01-09T04:01:45.802Z,-18.14
2023-01-09T04:04:12.937Z,-18.26
2023-01-09T04:06:39.956Z,-18.28
2023-01-09T04:09:09.955Z,-18.29
2023-01-09T04:11:36.881Z,-18.26
2023-01-09T04:14:04.016Z,-18.23
2023-01-09T04:16:31.149Z,-18.29
2023-01-09T04:18:58.139Z,-18.31
2023-01-09T04:21:25.252Z,-18.34
2023-01-09T04:23:52.270Z,-18.33
2023-01-09T04:26:19.365Z,-18.38
2023-01-09T04:28:46.445Z,-18.48
2023-01-09T04:31:13.557Z,-18.47
2023-01-09T04:33:40.558Z,-18.43
2023-01-09T04:36:07.797Z,-18.36
2023-01-09T04:38:34.806Z,-18.32
2023-01-09T04:41:01.834Z,-18.29
2023-01-09T04:43:29.441Z,-18.33
2023-01-09T04:45:56.941Z,-18.34
2023-01-09T04:48:24.622Z,-18.38
2023-01-09T04:50:51.772Z,-18.33
2023-01-09T04:53:18.746Z,-18.30
2023-01-09T04:55:45.951Z,-18.36
2023-01-09T04:58:12.962Z,-18.40
2023-01-09T05:00:40.047Z,-18.45
2023-01-09T05:03:07.168Z,-18.44
2023-01-09T05:05:34.192Z,-18.41
2023-01-09T05:08:01.197Z,-18.35
2023-01-09T05:10:28.553Z,-18.39
2023-01-09T05:12:56.039Z,-18.33
2023-01-09T05:15:23.151Z,-18.26
2023-01-09T05:17:50.199Z,-18.21
2023-01-09T05:20:17.250Z,-18.19
2023-01-09T05:22:44.359Z,-18.15
2023-01-09T05:25:11.305Z,-18.24
2023-01-09T05:27:39.770Z,-18.24
2023-01-09T05:30:07.014Z,-18.14
2023-01-09T05:32:38.477Z,-18.18
2023-01-09T05:35:06.108Z,-18.23
2023-01-09T05:37:33.323Z,-18.31
2023-01-09T05:40:00.490Z,-18.22
2023-01-09T05:42:27.601Z,-18.12
2023-01-09T05:44:54.620Z,-18.12
2023-01-09T05:47:21.591Z,-18.17
2023-01-09T05:49:48.639Z,-18.10
2023-01-09T05:52:15.996Z,-18.05
2023-01-09T05:54:43.172Z,-17.98
2023-01-09T05:57:10.141Z,-18.11
2023-01-09T05:59:37.171Z,-18.02
2023-01-09T06:02:04.178Z,-17.95
2023-01-09T06:04:31.287Z,-17.95
2023-01-09T06:06:58.441Z,-17.91
2023-01-09T06:09:26.142Z,-17.98
2023-01-09T06:11:55.073Z,-18.08
2023-01-09T06:14:22.494Z,-18.05
2023-01-09T06:16:49.753Z,-18.05
2023-01-09T06:19:16.786Z,-18.00
2023-01-09T06:21:44.024Z,-17.98
2023-01-09T06:24:11.076Z,-17.89
2023-01-09T06:26:38.010Z,-17.80
2023-01-09T06:29:05.369Z,-17.74
2023-01-09T06:31:32.489Z,-17.73
2023-01-09T06:34:00.039Z,-17.67
2023-01-09T06:36:27.028Z,-17.65
2023-01-09T06:38:53.947Z,-17.72
2023-01-09T06:41:21.479Z,-17.76
2023-01-09T06:43:48.522Z,-17.75
2023-01-09T06:46:15.521Z,-17.82
2023-01-09T06:48:42.491Z,-17.82
2023-01-09T06:51:09.419Z,-17.87
2023-01-09T06:53:36.499Z,-17.89
2023-01-09T06:56:03.836Z,-17.86
2023-01-09T06:58:32.452Z,-17.81
2023-01-09T07:01:01.903Z,-17.70
2023-01-09T07:03:29.002Z,-17.70
2023-01-09T07:05:56.116Z,-17.67
2023-01-09T07:08:23.213Z,-17.58
2023-01-09T07:10:50.096Z,-17.54
2023-01-09T07:13:17.206Z,-17.44
2023-01-09T07:15:44.373Z,-17.57
2023-01-09T07:18:11.503Z,-17.63
2023-01-09T07:20:39.920Z,-17.71
2023-01-09T07:23:06.867Z,-17.66
2023-01-09T07:25:33.879Z,-17.59
2023-01-09T07:28:01.143Z,-17.55
2023-01-09T07:30:28.242Z,-17.55
2023-01-09T07:32:55.146Z,-17.65
2023-01-09T07:35:22.034Z,-17.61
2023-01-09T07:37:49.262Z,-17.60
2023-01-09T07:40:16.236Z,-17.74
2023-01-09T07:42:43.243Z,-17.79
2023-01-09T07:45:10.430Z,-17.90
2023-01-09T07:47:37.391Z,-17.98
2023-01-09T07:50:04.540Z,-18.06
2023-01-09T07:52:31.600Z,-18.15
2023-01-09T07:54:59.104Z,-18.22
2023-01-09T07:57:26.210Z,-18.27
2023-01-09T07:59:53.423Z,-18.36
2023-01-09T08:02:20.614Z,-18.38
2023-01-09T08:04:48.777Z,-18.41
2023-01-09T08:09:57.559Z,-18.29
2023-01-09T08:12:27.249Z,-18.28
2023-01-09T08:14:56.631Z,-18.25
2023-01-09T08:17:33.057Z,-18.27
2023-01-09T08:20:02.305Z,-18.25
2023-01-09T08:22:32.463Z,-18.23
2023-01-09T08:24:59.513Z,-18.14
2023-01-09T08:27:37.146Z,-18.12
2023-01-09T08:30:06.208Z,-18.09
2023-01-09T08:32:34.348Z,-18.22
2023-01-09T08:35:02.822Z,-18.26
2023-01-09T08:37:30.473Z,-18.37
2023-01-09T08:39:57.972Z,-18.44
2023-01-09T08:42:44.352Z,-18.41
2023-01-09T08:45:40.763Z,-18.38
2023-01-09T08:48:13.307Z,-18.31
2023-01-09T08:53:22.546Z,-18.23
2023-01-09T09:01:30.511Z,-18.46
2023-01-09T09:03:58.100Z,-18.54
2023-01-09T09:20:14.835Z,-18.39
2023-01-09T09:22:43.206Z,-18.40
2023-01-09T09:25:17.595Z,-18.41
2023-01-09T09:27:48.361Z,-18.37
2023-01-09T09:30:17.851Z,-18.43
2023-01-09T09:32:55.496Z,-18.48
2023-01-09T09:35:22.840Z,-18.42
2023-01-09T09:44:16.932Z,-18.71
2023-01-09T09:49:42.366Z,-18.75
2023-01-09T09:52:32.025Z,-18.62
2023-01-09T09:55:05.536Z,-18.67
2023-01-09T09:57:46.652Z,-18.65
2023-01-09T10:00:26.699Z,-18.51
2023-01-09T10:05:41.471Z,-18.52
2023-01-09T10:11:21.516Z,-18.58
2023-01-09T10:22:45.727Z,-18.53
2023-01-09T10:34:07.992Z,-18.24
2023-01-09T10:39:24.512Z,-18.12
2023-01-09T10:44:44.348Z,-17.96
2023-01-09T10:52:44.872Z,-17.92
2023-01-09T10:58:24.837Z,-17.94
2023-01-09T11:03:35.574Z,-17.93
2023-01-09T11:20:15.373Z,-17.83
2023-01-09T11:25:28.350Z,-17.80
2023-01-09T11:28:01.476Z,-17.81
2023-01-09T11:30:30.681Z,-17.79
2023-01-09T11:32:58.157Z,-17.85
2023-01-09T11:35:27.638Z,-17.78
2023-01-09T11:38:00.958Z,-17.72
2023-01-09T11:40:30.087Z,-17.62
2023-01-09T11:43:35.793Z,-17.59
2023-01-09T11:46:04.197Z,-17.68
2023-01-09T11:48:33.108Z,-17.80
2023-01-09T11:51:01.834Z,-17.83
2023-01-09T11:53:29.252Z,-17.85
2023-01-09T11:55:58.092Z,-18.00
2023-01-09T11:58:25.150Z,-17.91
2023-01-09T12:00:55.480Z,-17.88
2023-01-09T12:03:30.505Z,-17.89
2023-01-09T12:06:09.539Z,-17.88
2023-01-09T12:08:37.254Z,-17.92
2023-01-09T12:11:04.759Z,-17.85
2023-01-09T12:13:50.679Z,-17.89
2023-01-09T12:16:18.298Z,-17.94
2023-01-09T12:18:45.433Z,-17.96
2023-01-09T12:21:22.013Z,-17.87
2023-01-09T12:24:02.105Z,-17.94
2023-01-09T12:26:34.734Z,-17.98
2023-01-09T12:29:23.440Z,-17.97
2023-01-09T12:32:10.897Z,-17.91
2023-01-09T12:34:57.559Z,-17.82
2023-01-09T12:37:44.169Z,-17.82
2023-01-09T12:40:12.006Z,-17.86
2023-01-09T12:42:49.668Z,-17.97
2023-01-09T12:45:16.910Z,-18.10
2023-01-09T12:47:49.616Z,-18.23
2023-01-09T12:50:28.955Z,-18.34
2023-01-09T12:52:56.150Z,-18.40
2023-01-09T12:55:26.520Z,-18.38
2023-01-09T12:58:06.150Z,-18.48
2023-01-09T13:00:42.437Z,-18.55
2023-01-09T13:03:32.824Z,-18.63
2023-01-09T13:06:01.776Z,-18.68
2023-01-09T13:08:36.044Z,-18.70
2023-01-09T13:11:19.434Z,-18.75
2023-01-09T13:16:33.535Z,-18.71
2023-01-09T13:19:12.784Z,-18.73
2023-01-09T13:21:45.343Z,-18.69
2023-01-09T13:24:18.890Z,-18.72
2023-01-09T13:26:48.143Z,-18.73
2023-01-09T13:29:20.616Z,-18.75
2023-01-09T13:34:58.912Z,-18.76
2023-01-09T13:37:25.983Z,-18.75
2023-01-09T13:40:17.210Z,-18.72
2023-01-09T13:42:47.498Z,-18.71
2023-01-09T13:48:20.512Z,-18.68
2023-01-09T13:50:48.249Z,-18.65
2023-01-09T13:53:21.522Z,-18.72
2023-01-09T13:55:58.800Z,-18.71
2023-01-09T13:58:27.611Z,-18.70
2023-01-09T14:00:56.915Z,-18.70
2023-01-09T14:03:27.663Z,-18.68
2023-01-09T14:05:54.664Z,-18.64
2023-01-09T14:08:23.176Z,-18.70
2023-01-09T14:10:57.318Z,-18.71
2023-01-09T14:13:25.590Z,-18.77
2023-01-09T14:18:50.455Z,-18.72
2023-01-09T14:21:17.924Z,-18.71
2023-01-09T14:24:07.152Z,-18.66
2023-01-09T14:26:46.104Z,-18.67
2023-01-09T14:29:32.634Z,-18.76
2023-01-09T14:32:19.428Z,-18.77
2023-01-09T14:34:48.620Z,-18.76
2023-01-09T14:37:16.229Z,-18.82
2023-01-09T14:39:47.697Z,-18.81
2023-01-09T14:42:27.534Z,-18.83
2023-01-09T14:48:08.407Z,-18.74
2023-01-09T14:50:55.496Z,-18.80
2023-01-09T14:56:27.306Z,-18.86
2023-01-09T14:59:06.589Z,-18.80
2023-01-09T15:01:35.996Z,-18.86
2023-01-09T15:04:12.202Z,-18.89
2023-01-09T15:06:43.704Z,-18.85
2023-01-09T15:09:20.868Z,-18.88
2023-01-09T15:11:48.812Z,-18.91
2023-01-09T15:14:31.765Z,-18.86
2023-01-09T15:16:59.706Z,-18.88
2023-01-09T15:19:27.331Z,-18.98
2023-01-09T15:21:59.188Z,-19.04
2023-01-09T15:24:31.753Z,-19.06
2023-01-09T15:27:01.653Z,-19.06
2023-01-09T15:29:28.977Z,-19.12
2023-01-09T15:32:01.485Z,-19.14
2023-01-09T15:34:29.324Z,-19.18
2023-01-09T15:36:56.474Z,-19.16
2023-01-09T15:39:26.572Z,-19.17
2023-01-09T15:42:16.307Z,-19.20
2023-01-09T15:44:45.168Z,-19.17
2023-01-09T15:47:15.801Z,-19.18
2023-01-09T15:49:43.279Z,-19.21
2023-01-09T15:52:13.491Z,-19.23
2023-01-09T15:54:43.139Z,-19.22
2023-01-09T15:57:34.551Z,-19.26
2023-01-09T16:00:28.776Z,-19.23
2023-01-09T16:03:11.415Z,-19.23
2023-01-09T16:05:43.141Z,-19.17
2023-01-09T16:08:21.380Z,-19.17
2023-01-09T16:10:52.918Z,-19.15
2023-01-09T16:13:21.604Z,-19.16
2023-01-09T16:15:49.237Z,-19.16
2023-01-09T16:18:20.097Z,-19.13
2023-01-09T16:20:47.823Z,-19.19
2023-01-09T16:23:22.585Z,-19.19
2023-01-09T16:25:49.692Z,-19.18
2023-01-09T16:28:22.498Z,-19.17
2023-01-09T16:30:53.027Z,-19.15
2023-01-09T16:36:06.416Z,-19.21
2023-01-09T16:38:34.368Z,-19.30
2023-01-09T16:41:24.840Z,-19.28
2023-01-09T16:43:52.736Z,-19.34
2023-01-09T16:46:21.241Z,-19.29
2023-01-09T16:48:48.990Z,-19.29
2023-01-09T16:51:25.935Z,-19.36
2023-01-09T16:53:53.307Z,-19.35
2023-01-09T16:56:28.212Z,-19.40
2023-01-09T16:58:55.363Z,-19.48
2023-01-09T17:01:23.443Z,-19.45
2023-01-09T17:03:51.127Z,-19.44
2023-01-09T17:06:21.246Z,-19.35
2023-01-09T17:08:48.276Z,-19.40
2023-01-09T17:11:20.270Z,-19.42
2023-01-09T17:13:48.108Z,-19.48
2023-01-09T17:16:15.936Z,-19.54
2023-01-09T17:18:43.386Z,-19.53
2023-01-09T17:21:14.979Z,-19.57
2023-01-09T17:23:41.898Z,-19.60
2023-01-09T17:26:33.765Z,-19.56
2023-01-09T17:29:01.009Z,-19.66
2023-01-09T17:31:31.557Z,-19.77
2023-01-09T17:33:59.459Z,-19.80
2023-01-09T17:36:32.482Z,-19.90
2023-01-09T17:39:01.445Z,-19.87
2023-01-09T17:41:29.521Z,-19.82
2023-01-09T17:43:57.835Z,-19.74
2023-01-09T17:46:27.928Z,-19.71
2023-01-09T17:48:55.524Z,-19.73
2023-01-09T17:51:26.675Z,-19.75
2023-01-09T17:53:53.913Z,-19.83
2023-01-09T17:56:28.073Z,-19.95
2023-01-09T17:58:55.232Z,-19.96
2023-01-09T18:01:22.428Z,-19.97
2023-01-09T18:03:50.861Z,-20.03
2023-01-09T18:06:19.369Z,-19.97
2023-01-09T18:08:46.686Z,-20.01
2023-01-09T18:11:15.039Z,-19.99
2023-01-09T18:13:42.295Z,-20.05
2023-01-09T18:16:13.459Z,-20.00
2023-01-09T18:18:41.234Z,-19.97
2023-01-09T18:21:09.130Z,-19.93
2023-01-09T18:23:36.350Z,-19.98
2023-01-09T18:26:07.191Z,-20.03
2023-01-09T18:28:38.163Z,-20.04
2023-01-09T18:31:06.765Z,-20.05
2023-01-09T18:33:33.902Z,-20.07
2023-01-09T18:36:10.660Z,-20.06
2023-01-09T18:38:38.208Z,-20.17
2023-01-09T18:41:05.672Z,-20.14
2023-01-09T18:43:32.829Z,-20.17
2023-01-09T18:45:59.852Z,-20.15
2023-01-09T18:48:27.009Z,-20.23
2023-01-09T18:51:01.956Z,-20.20
2023-01-09T18:53:29.082Z,-20.20
2023-01-09T18:55:56.288Z,-20.21
2023-01-09T18:58:23.419Z,-20.17
2023-01-09T19:00:51.690Z,-20.29
2023-01-09T19:03:18.727Z,-20.21
2023-01-09T19:05:45.821Z,-20.28
2023-01-09T19:08:13.584Z,-20.28
2023-01-09T19:10:40.522Z,-20.18
2023-01-09T19:13:07.396Z,-20.16
2023-01-09T19:15:34.992Z,-20.13
2023-01-09T19:18:02.029Z,-20.18
2023-01-09T19:20:29.926Z,-20.15
2023-01-09T19:22:57.125Z,-20.14
2023-01-09T19:25:24.197Z,-20.16
2023-01-09T19:27:53.637Z,-20.15
2023-01-09T19:30:20.732Z,-20.24
2023-01-09T19:32:48.047Z,-20.23
2023-01-09T19:35:15.206Z,-20.32
2023-01-09T19:37:42.151Z,-20.27
2023-01-09T19:40:09.678Z,-20.36
2023-01-09T19:42:36.904Z,-20.31
2023-01-09T19:45:05.082Z,-20.28
2023-01-09T19:47:38.271Z,-20.28
2023-01-09T19:50:05.979Z,-20.24
2023-01-09T19:52:32.932Z,-20.31
2023-01-09T19:55:00.016Z,-20.27
2023-01-09T19:57:27.036Z,-20.33
2023-01-09T19:59:54.101Z,-20.30
2023-01-09T20:04:53.000Z,-20.30
2023-01-09T20:07:21.558Z,-20.32
2023-01-09T20:09:49.572Z,-20.34
2023-01-09T20:12:16.480Z,-20.30
2023-01-09T20:14:45.266Z,-20.35
2023-01-09T20:17:12.250Z,-20.36
2023-01-09T20:19:39.629Z,-20.31
2023-01-09T20:22:06.569Z,-20.26
2023-01-09T20:24:33.549Z,-20.24
2023-01-09T20:27:00.820Z,-20.24
2023-01-09T20:29:29.177Z,-20.34
2023-01-09T20:31:56.384Z,-20.34
2023-01-09T20:34:23.311Z,-20.47
2023-01-09T20:36:50.396Z,-20.44
2023-01-09T20:39:17.507Z,-20.46
2023-01-09T20:41:44.591Z,-20.48
2023-01-09T20:44:12.644Z,-20.35
2023-01-09T20:46:40.957Z,-20.32
2023-01-09T20:49:09.901Z,-20.28
2023-01-09T20:51:37.523Z,-20.32
2023-01-09T20:54:04.551Z,-20.38
2023-01-09T20:56:32.033Z,-20.45
2023-01-09T20:59:00.229Z,-20.38
2023-01-09T21:01:28.134Z,-20.36
2023-01-09T21:03:56.232Z,-20.37
2023-01-09T21:06:24.071Z,-20.33
2023-01-09T21:08:52.375Z,-20.31
2023-01-09T21:11:20.374Z,-20.33
2023-01-09T21:13:47.323Z,-20.28
2023-01-09T21:16:15.735Z,-20.37
2023-01-09T21:18:43.501Z,-20.40
2023-01-09T21:21:14.242Z,-20.43
2023-01-09T21:23:48.331Z,-20.45
2023-01-09T21:26:15.863Z,-20.48
2023-01-09T21:28:48.283Z,-20.41
2023-01-09T21:31:16.548Z,-20.44
2023-01-09T21:33:43.467Z,-20.47
2023-01-09T21:36:11.004Z,-20.43
2023-01-09T21:38:38.198Z,-20.50
2023-01-09T21:41:23.781Z,-20.60
2023-01-09T21:44:09.261Z,-20.62
2023-01-09T21:46:57.885Z,-20.66
2023-01-09T21:49:26.062Z,-20.61
2023-01-09T21:51:54.133Z,-20.60
2023-01-09T21:54:23.314Z,-20.59
2023-01-09T21:56:50.958Z,-20.63
2023-01-09T21:59:18.125Z,-20.55
2023-01-09T22:01:45.172Z,-20.64
2023-01-09T22:04:14.208Z,-20.62
2023-01-09T22:06:41.145Z,-20.56
2023-01-09T22:09:08.077Z,-20.58
2023-01-09T22:11:35.134Z,-20.47
2023-01-09T22:14:02.190Z,-20.54
2023-01-09T22:16:29.297Z,-20.45
2023-01-09T22:18:56.706Z,-20.47
2023-01-09T22:21:24.431Z,-20.52
2023-01-09T22:23:51.837Z,-20.49
2023-01-09T22:26:19.102Z,-20.54
2023-01-09T22:28:46.631Z,-20.56
2023-01-09T22:31:18.001Z,-20.54
2023-01-09T22:33:49.128Z,-20.62
2023-01-09T22:36:16.121Z,-20.65
2023-01-09T22:38:44.049Z,-20.60
2023-01-09T22:41:11.473Z,-20.70
2023-01-09T22:43:38.399Z,-20.66
2023-01-09T22:46:06.700Z,-20.62
2023-01-09T22:48:34.730Z,-20.68
2023-01-09T22:51:02.280Z,-20.70
2023-01-09T22:53:29.861Z,-20.66
2023-01-09T22:56:00.521Z,-20.55
2023-01-09T22:58:28.665Z,-20.52
2023-01-09T23:00:55.577Z,-20.57
2023-01-09T23:03:22.959Z,-20.60
2023-01-09T23:05:50.040Z,-20.52
2023-01-09T23:08:17.365Z,-20.49
2023-01-09T23:10:44.782Z,-20.41
2023-01-09T23:13:11.775Z,-20.34
2023-01-09T23:15:38.778Z,-20.35
2023-01-09T23:18:07.955Z,-20.37
2023-01-09T23:20:34.993Z,-20.30
2023-01-09T23:23:02.017Z,-20.30
2023-01-09T23:25:28.973Z,-20.30
2023-01-09T23:27:55.913Z,-20.33
2023-01-09T23:30:23.080Z,-20.31
2023-01-09T23:32:50.083Z,-20.23
2023-01-09T23:35:17.063Z,-20.23
2023-01-09T23:37:44.068Z,-20.23
2023-01-09T23:40:11.664Z,-20.27
2023-01-09T23:42:58.204Z,-20.24
2023-01-09T23:45:25.245Z,-20.19
2023-01-09T23:47:52.130Z,-20.25
2023-01-09T23:50:19.094Z,-20.16
2023-01-09T23:52:46.031Z,-20.07
2023-01-09T23:55:13.089Z,-20.07
2023-01-09T23:57:40.077Z,-20.00
